Dunmow, United Kingdom
Current Conditions -  °F | °C
As of 12:20 PM on Saturday 20 Dec 2014 (Local Time) from EGSS Reporting Station
Scattered Clouds Scattered Clouds  
Wind Chill: 40°   Ceiling: Unl
Heat Index: 46°   Visibility: 6mi
Dew Point: 37°   Wind: 14mph
Humidity: 71%   Direction: 280°W
Pressure: 30.24"   Gusts: NA
Location:  51.87°N, 0.36°E
Report Text: EGSS 201220Z 28012KT 9999 SCT031 08/03 Q1024
Loading
Personal Weather Stations






























Interactive Weather Map New forecast layout! Learn more

10-Day Weather Forecast

Advertisements
Track Severe Weather on mobile